createdAt,value
2023-05-17T00:00:43.872Z,55.55
2023-05-17T00:03:19.672Z,55.52
2023-05-17T00:05:48.461Z,55.67
2023-05-17T00:08:17.528Z,55.62
2023-05-17T00:10:46.825Z,55.91
2023-05-17T00:13:15.721Z,55.88
2023-05-17T00:15:44.794Z,55.87
2023-05-17T00:18:13.836Z,56.12
2023-05-17T00:20:42.904Z,56.07
2023-05-17T00:23:12.254Z,56.12
2023-05-17T00:25:41.379Z,56.28
2023-05-17T00:28:10.225Z,56.29
2023-05-17T00:30:39.131Z,56.43
2023-05-17T00:33:08.220Z,56.55
2023-05-17T00:35:37.399Z,56.48
2023-05-17T00:38:06.933Z,56.64
2023-05-17T00:40:36.107Z,56.57
2023-05-17T00:43:05.154Z,56.64
2023-05-17T00:45:34.396Z,56.76
2023-05-17T00:48:03.650Z,56.73
2023-05-17T00:50:33.062Z,56.75
2023-05-17T00:53:02.270Z,56.76
2023-05-17T00:55:32.017Z,56.77
2023-05-17T00:58:01.294Z,56.81
2023-05-17T01:00:30.340Z,56.86
2023-05-17T01:03:00.826Z,56.94
2023-05-17T01:05:30.803Z,56.89
2023-05-17T01:08:00.181Z,56.93
2023-05-17T01:10:36.354Z,57.00
2023-05-17T01:13:13.113Z,57.11
2023-05-17T01:15:48.005Z,57.08
2023-05-17T01:18:23.759Z,57.20
2023-05-17T01:20:55.768Z,57.13
2023-05-17T01:23:45.119Z,57.08
2023-05-17T01:26:18.866Z,57.25
2023-05-17T01:28:53.020Z,57.20
2023-05-17T01:31:23.472Z,57.18
2023-05-17T01:33:52.728Z,57.32
2023-05-17T01:36:21.818Z,57.32
2023-05-17T01:38:50.917Z,57.27
2023-05-17T01:41:26.715Z,57.31
2023-05-17T01:43:57.190Z,57.38
2023-05-17T01:46:31.919Z,57.42
2023-05-17T01:49:09.432Z,57.41
2023-05-17T01:51:48.033Z,57.45
2023-05-17T01:54:23.199Z,57.67
2023-05-17T01:56:58.494Z,57.55
2023-05-17T01:59:29.684Z,57.79
2023-05-17T02:02:05.634Z,57.78
2023-05-17T02:04:35.373Z,57.94
2023-05-17T02:07:05.005Z,57.78
2023-05-17T02:09:33.906Z,57.91
2023-05-17T02:12:03.331Z,57.92
2023-05-17T02:14:32.628Z,58.11
2023-05-17T02:17:01.923Z,58.22
2023-05-17T02:19:30.903Z,58.13
2023-05-17T02:22:00.012Z,58.10
2023-05-17T02:24:29.122Z,58.22
2023-05-17T02:26:58.131Z,58.16
2023-05-17T02:29:27.340Z,58.24
2023-05-17T02:31:56.963Z,58.34
2023-05-17T02:34:26.053Z,58.31
2023-05-17T02:36:55.125Z,58.31
2023-05-17T02:39:24.118Z,58.37
2023-05-17T02:41:53.167Z,58.47
2023-05-17T02:44:22.076Z,58.40
2023-05-17T02:46:51.334Z,58.49
2023-05-17T02:49:20.349Z,58.53
2023-05-17T02:51:49.220Z,58.61
2023-05-17T02:54:18.295Z,58.61
2023-05-17T02:56:47.440Z,58.75
2023-05-17T02:59:16.423Z,58.63
2023-05-17T03:01:45.337Z,58.66
2023-05-17T03:04:14.449Z,58.72
2023-05-17T03:06:43.543Z,58.77
2023-05-17T03:09:12.712Z,58.55
2023-05-17T03:11:41.803Z,58.69
2023-05-17T03:14:10.861Z,58.68
2023-05-17T03:16:40.068Z,58.74
2023-05-17T03:19:09.704Z,58.71
2023-05-17T03:21:39.122Z,58.75
2023-05-17T03:24:08.940Z,58.77
2023-05-17T03:26:37.967Z,58.73
2023-05-17T03:29:07.342Z,58.83
2023-05-17T03:31:36.696Z,58.83
2023-05-17T03:34:05.998Z,58.82
2023-05-17T03:36:35.528Z,58.89
2023-05-17T03:39:04.794Z,58.92
2023-05-17T03:41:34.070Z,58.85
2023-05-17T03:44:03.130Z,58.83
2023-05-17T03:46:32.094Z,58.78
2023-05-17T03:49:01.226Z,58.76
2023-05-17T03:51:30.777Z,58.85
2023-05-17T03:54:01.114Z,58.81
2023-05-17T03:56:31.973Z,58.79
2023-05-17T03:59:01.107Z,58.73
2023-05-17T04:01:30.230Z,58.73
2023-05-17T04:04:00.806Z,58.75
2023-05-17T04:06:30.090Z,58.79
2023-05-17T04:08:59.494Z,58.72
2023-05-17T04:11:28.805Z,58.93
2023-05-17T04:13:57.843Z,58.88
2023-05-17T04:16:26.958Z,58.95
2023-05-17T04:18:56.120Z,58.90
2023-05-17T04:21:25.518Z,58.93
2023-05-17T04:23:54.521Z,58.94
2023-05-17T04:26:23.617Z,58.93
2023-05-17T04:28:53.128Z,59.04
2023-05-17T04:31:22.241Z,58.96
2023-05-17T04:33:51.492Z,59.02
2023-05-17T04:36:20.714Z,59.07
2023-05-17T04:38:49.894Z,59.13
2023-05-17T04:41:19.007Z,59.06
2023-05-17T04:43:48.063Z,58.95
2023-05-17T04:46:16.979Z,59.03
2023-05-17T04:48:46.725Z,59.04
2023-05-17T04:51:15.962Z,59.03
2023-05-17T04:53:45.207Z,59.03
2023-05-17T04:56:14.219Z,59.07
2023-05-17T04:58:43.169Z,59.09
2023-05-17T05:01:12.418Z,58.90
2023-05-17T05:03:41.588Z,58.96
2023-05-17T05:06:11.541Z,58.91
2023-05-17T05:08:41.308Z,58.95
2023-05-17T05:11:10.348Z,58.94
2023-05-17T05:13:41.193Z,58.99
2023-05-17T05:16:10.333Z,59.11
2023-05-17T05:18:39.487Z,59.13
2023-05-17T05:21:08.837Z,59.22
2023-05-17T05:23:37.824Z,59.54
2023-05-17T05:26:07.079Z,59.50
2023-05-17T05:28:36.915Z,59.62
2023-05-17T05:31:06.292Z,59.65
2023-05-17T05:33:35.859Z,59.83
2023-05-17T05:36:05.992Z,59.82
2023-05-17T05:38:35.902Z,60.02
2023-05-17T05:41:05.149Z,60.13
2023-05-17T05:43:36.806Z,60.31
2023-05-17T05:46:07.534Z,60.36
2023-05-17T05:48:38.850Z,60.42
2023-05-17T05:51:08.433Z,60.50
2023-05-17T05:53:38.077Z,60.60
2023-05-17T05:56:11.540Z,60.77
2023-05-17T05:58:40.614Z,60.73
2023-05-17T06:01:09.586Z,60.94
2023-05-17T06:03:38.632Z,60.98
2023-05-17T06:06:08.364Z,61.07
2023-05-17T06:08:37.508Z,61.24
2023-05-17T06:11:06.834Z,61.30
2023-05-17T06:13:35.892Z,61.30
2023-05-17T06:16:05.636Z,61.29
2023-05-17T06:18:34.648Z,61.37
2023-05-17T06:21:03.972Z,61.42
2023-05-17T06:23:32.923Z,61.47
2023-05-17T06:26:02.109Z,61.40
2023-05-17T06:28:31.219Z,61.62
2023-05-17T06:31:00.345Z,61.69
2023-05-17T06:33:29.648Z,61.70
2023-05-17T06:35:59.200Z,61.75
2023-05-17T06:38:28.266Z,61.89
2023-05-17T06:40:58.059Z,61.97
2023-05-17T06:43:27.187Z,62.00
2023-05-17T06:45:58.605Z,62.08
2023-05-17T06:48:27.746Z,62.09
2023-05-17T06:50:57.183Z,62.16
2023-05-17T06:53:26.730Z,62.16
2023-05-17T06:55:56.033Z,62.27
2023-05-17T06:58:25.203Z,62.14
2023-05-17T07:00:54.454Z,62.17
2023-05-17T07:03:23.482Z,62.10
2023-05-17T07:05:52.588Z,62.23
2023-05-17T07:08:21.704Z,62.20
2023-05-17T07:10:52.791Z,62.15
2023-05-17T07:13:21.848Z,62.12
2023-05-17T07:15:51.031Z,62.11
2023-05-17T07:18:20.413Z,62.26
2023-05-17T07:20:49.386Z,62.32
2023-05-17T07:23:18.597Z,62.30
2023-05-17T07:25:47.560Z,62.24
2023-05-17T07:28:16.469Z,62.27
2023-05-17T07:30:45.494Z,62.30
2023-05-17T07:33:14.435Z,62.32
2023-05-17T07:35:43.567Z,62.34
2023-05-17T07:38:12.666Z,62.51
2023-05-17T07:40:41.698Z,62.62
2023-05-17T07:43:10.790Z,62.83
2023-05-17T07:45:39.872Z,62.86
2023-05-17T07:48:08.877Z,62.68
2023-05-17T07:50:37.921Z,62.76
2023-05-17T07:53:06.966Z,62.90
2023-05-17T07:55:35.856Z,63.00
2023-05-17T07:58:05.127Z,63.16
2023-05-17T08:00:34.645Z,62.99
2023-05-17T08:03:03.951Z,62.90
2023-05-17T08:05:33.162Z,62.98
2023-05-17T08:08:02.316Z,62.87
2023-05-17T08:10:31.491Z,62.86
2023-05-17T08:13:00.445Z,62.89
2023-05-17T08:15:31.151Z,62.71
2023-05-17T08:18:02.932Z,62.72
2023-05-17T08:20:33.729Z,62.63
2023-05-17T08:23:02.814Z,62.49
2023-05-17T08:25:32.206Z,62.40
2023-05-17T08:28:01.119Z,62.31
2023-05-17T08:30:30.099Z,62.35
2023-05-17T08:32:59.891Z,62.38
2023-05-17T08:35:29.285Z,62.48
2023-05-17T08:37:58.469Z,62.42
2023-05-17T08:40:28.824Z,62.47
2023-05-17T08:42:58.567Z,62.47
2023-05-17T08:45:28.789Z,62.53
2023-05-17T08:47:58.800Z,62.46
2023-05-17T08:50:30.424Z,62.66
2023-05-17T08:53:00.471Z,62.76
2023-05-17T08:55:32.560Z,62.89
2023-05-17T08:58:02.095Z,62.90
2023-05-17T09:00:32.972Z,63.04
2023-05-17T09:03:02.304Z,63.03
2023-05-17T09:05:31.832Z,63.05
2023-05-17T09:08:01.883Z,63.14
2023-05-17T09:10:31.140Z,63.25
2023-05-17T09:13:00.542Z,63.44
2023-05-17T09:15:33.663Z,63.44
2023-05-17T09:18:03.004Z,63.62
2023-05-17T09:20:34.584Z,63.67
2023-05-17T09:23:05.352Z,63.64
2023-05-17T09:25:34.492Z,63.71
2023-05-17T09:28:05.464Z,63.84
2023-05-17T09:30:37.601Z,63.86
2023-05-17T09:33:08.199Z,63.85
2023-05-17T09:35:38.889Z,63.91
2023-05-17T09:38:10.624Z,63.86
2023-05-17T09:40:41.424Z,64.03
2023-05-17T09:43:11.841Z,64.05
2023-05-17T09:45:40.755Z,64.08
2023-05-17T09:48:14.698Z,64.16
2023-05-17T09:50:47.949Z,64.25
2023-05-17T09:53:28.001Z,64.20
2023-05-17T09:55:59.303Z,64.18
2023-05-17T09:58:31.726Z,64.29
2023-05-17T10:01:03.188Z,64.26
2023-05-17T10:03:34.941Z,64.47
2023-05-17T10:06:08.778Z,64.34
2023-05-17T10:08:44.102Z,64.47
2023-05-17T10:11:13.246Z,64.52
2023-05-17T10:13:48.253Z,64.53
2023-05-17T10:16:18.533Z,64.54
2023-05-17T10:18:49.452Z,64.63
2023-05-17T10:21:19.750Z,64.49
2023-05-17T10:23:49.421Z,64.67
2023-05-17T10:26:18.872Z,64.83
2023-05-17T10:28:51.542Z,64.79
2023-05-17T10:31:21.353Z,64.85
2023-05-17T10:33:52.042Z,64.68
2023-05-17T10:36:23.692Z,64.71
2023-05-17T10:38:53.416Z,64.73
2023-05-17T10:41:25.295Z,64.99
2023-05-17T10:43:56.265Z,64.93
2023-05-17T10:46:25.420Z,64.79
2023-05-17T10:48:57.370Z,64.84
2023-05-17T10:51:31.795Z,65.08
2023-05-17T10:54:11.713Z,64.73
2023-05-17T10:56:47.169Z,64.75
2023-05-17T10:59:17.938Z,64.93
2023-05-17T11:01:54.844Z,64.85
2023-05-17T11:04:25.532Z,64.66
2023-05-17T11:07:16.591Z,64.78
2023-05-17T11:09:47.113Z,64.89
2023-05-17T11:12:16.903Z,64.80
2023-05-17T11:14:53.600Z,64.68
2023-05-17T11:17:25.430Z,64.56
2023-05-17T11:20:13.389Z,64.52
2023-05-17T11:22:58.853Z,64.26
2023-05-17T11:25:30.862Z,64.34
2023-05-17T11:28:00.345Z,64.35
2023-05-17T11:30:31.153Z,64.35
2023-05-17T11:33:02.135Z,64.50
2023-05-17T11:35:35.304Z,64.35
2023-05-17T11:38:19.380Z,64.38
2023-05-17T11:40:50.281Z,64.45
2023-05-17T11:43:22.740Z,64.46
2023-05-17T11:45:53.904Z,64.31
2023-05-17T11:48:25.497Z,64.45
2023-05-17T11:50:56.473Z,64.27
2023-05-17T11:53:26.736Z,63.92
2023-05-17T11:55:56.500Z,63.97
2023-05-17T11:58:26.818Z,63.88
2023-05-17T12:00:57.848Z,64.06
2023-05-17T12:03:28.442Z,63.99
2023-05-17T12:06:06.839Z,63.95
2023-05-17T12:08:38.166Z,64.18
2023-05-17T12:11:10.961Z,63.84
2023-05-17T12:13:42.105Z,64.07
2023-05-17T12:16:15.974Z,63.89
2023-05-17T12:18:47.382Z,63.80
2023-05-17T12:21:18.510Z,63.83
2023-05-17T12:23:52.168Z,63.77
2023-05-17T12:26:22.693Z,63.67
2023-05-17T12:28:55.854Z,63.96
2023-05-17T12:31:28.133Z,63.80
2023-05-17T12:33:58.690Z,63.63
2023-05-17T12:36:28.977Z,63.69
2023-05-17T12:38:58.468Z,63.68
2023-05-17T12:41:28.235Z,63.68
2023-05-17T12:44:13.796Z,63.56
2023-05-17T12:46:44.673Z,63.52
2023-05-17T12:49:13.872Z,63.70
2023-05-17T12:51:44.196Z,63.51
2023-05-17T12:54:15.545Z,63.59
2023-05-17T12:56:44.918Z,63.58
2023-05-17T12:59:16.285Z,63.61
2023-05-17T13:01:46.969Z,63.61
2023-05-17T13:04:17.866Z,63.45
2023-05-17T13:06:48.620Z,63.43
2023-05-17T13:09:18.784Z,63.35
2023-05-17T13:11:52.641Z,63.39
2023-05-17T13:14:45.336Z,63.44
2023-05-17T13:17:20.368Z,63.31
2023-05-17T13:19:50.149Z,63.25
2023-05-17T13:22:19.408Z,62.96
2023-05-17T13:24:48.313Z,62.70
2023-05-17T13:27:17.437Z,62.22
2023-05-17T13:29:46.565Z,61.84
2023-05-17T13:32:15.818Z,60.83
2023-05-17T13:34:45.288Z,60.00
2023-05-17T13:37:14.483Z,59.66
2023-05-17T13:39:43.680Z,59.45
2023-05-17T13:42:13.795Z,58.63
2023-05-17T13:44:42.834Z,58.52
2023-05-17T13:47:11.915Z,58.21
2023-05-17T13:49:40.803Z,57.84
2023-05-17T13:52:12.168Z,57.84
2023-05-17T13:54:41.258Z,57.10
2023-05-17T13:57:10.770Z,56.92
2023-05-17T13:59:39.927Z,56.79
2023-05-17T14:02:09.896Z,56.70
2023-05-17T14:04:39.002Z,56.39
2023-05-17T14:07:08.175Z,56.05
2023-05-17T14:09:37.088Z,55.57
2023-05-17T14:12:07.202Z,55.64
2023-05-17T14:14:36.249Z,55.51
2023-05-17T14:17:05.677Z,55.23
2023-05-17T14:19:34.936Z,54.96
2023-05-17T14:22:04.232Z,55.09
2023-05-17T14:24:35.016Z,55.15
2023-05-17T14:27:06.314Z,55.08
2023-05-17T14:29:35.380Z,54.78
2023-05-17T14:32:06.036Z,54.56
2023-05-17T14:34:35.009Z,54.33
2023-05-17T14:37:04.408Z,54.49
2023-05-17T14:39:33.479Z,54.41
2023-05-17T14:42:02.389Z,54.04
2023-05-17T14:44:31.410Z,54.07
2023-05-17T14:47:00.600Z,54.02
2023-05-17T14:49:29.701Z,53.78
2023-05-17T14:51:58.767Z,53.99
2023-05-17T14:54:30.532Z,53.89
2023-05-17T14:57:00.070Z,53.87
2023-05-17T14:59:29.099Z,53.85
2023-05-17T15:01:58.094Z,53.79
2023-05-17T15:04:27.250Z,53.73
2023-05-17T15:06:57.071Z,53.57
2023-05-17T15:09:26.116Z,53.68
2023-05-17T15:11:55.488Z,53.51
2023-05-17T15:14:24.607Z,53.32
2023-05-17T15:16:53.762Z,52.90
2023-05-17T15:19:23.615Z,52.98
2023-05-17T15:21:52.608Z,52.91
2023-05-17T15:24:21.533Z,52.71
2023-05-17T15:26:50.753Z,52.50
2023-05-17T15:29:19.638Z,52.25
2023-05-17T15:31:48.901Z,52.08
2023-05-17T15:34:18.011Z,52.06
2023-05-17T15:36:48.061Z,52.03
2023-05-17T15:39:17.711Z,51.98
2023-05-17T15:41:46.885Z,51.92
2023-05-17T15:44:16.146Z,51.80
2023-05-17T15:46:45.409Z,51.77
2023-05-17T15:49:14.471Z,51.65
2023-05-17T15:51:43.711Z,51.64
2023-05-17T15:54:12.708Z,51.51
2023-05-17T15:56:41.537Z,51.62
2023-05-17T15:59:10.538Z,51.63
2023-05-17T16:01:41.844Z,51.62
2023-05-17T16:04:10.980Z,51.57
2023-05-17T16:06:40.699Z,51.55
2023-05-17T16:09:09.956Z,51.36
2023-05-17T16:11:38.968Z,51.65
2023-05-17T16:14:08.466Z,51.47
2023-05-17T16:16:37.425Z,51.43
2023-05-17T16:19:06.511Z,51.38
2023-05-17T16:21:35.760Z,51.29
2023-05-17T16:24:06.107Z,51.32
2023-05-17T16:26:37.840Z,51.23
2023-05-17T16:29:06.873Z,51.27
2023-05-17T16:31:35.979Z,51.15
2023-05-17T16:34:05.128Z,51.03
2023-05-17T16:36:34.144Z,51.22
2023-05-17T16:39:03.315Z,50.86
2023-05-17T16:41:33.563Z,50.97
2023-05-17T16:44:02.504Z,50.80
2023-05-17T16:46:32.364Z,50.72
2023-05-17T16:49:01.497Z,50.53
2023-05-17T16:51:30.859Z,50.36
2023-05-17T16:53:59.951Z,50.34
2023-05-17T16:56:28.970Z,50.13
2023-05-17T16:58:57.961Z,49.99
2023-05-17T17:01:27.252Z,49.67
2023-05-17T17:03:56.271Z,49.69
2023-05-17T17:06:25.292Z,49.69
2023-05-17T17:08:54.428Z,49.67
2023-05-17T17:11:23.550Z,49.33
2023-05-17T17:13:52.972Z,49.32
2023-05-17T17:16:22.112Z,49.20
2023-05-17T17:18:51.318Z,48.99
2023-05-17T17:21:20.332Z,48.74
2023-05-17T17:23:49.723Z,48.74
2023-05-17T17:26:18.632Z,48.81
2023-05-17T17:28:47.587Z,48.74
2023-05-17T17:31:17.730Z,48.76
2023-05-17T17:33:46.914Z,48.72
2023-05-17T17:36:15.848Z,48.54
2023-05-17T17:38:44.941Z,48.56
2023-05-17T17:41:13.941Z,48.58
2023-05-17T17:43:42.935Z,48.57
2023-05-17T17:46:11.836Z,48.18
2023-05-17T17:48:40.877Z,48.20
2023-05-17T17:51:09.882Z,48.40
2023-05-17T17:53:40.763Z,48.30
2023-05-17T17:56:09.794Z,48.24
2023-05-17T17:58:38.719Z,48.24
2023-05-17T18:01:07.780Z,48.36
2023-05-17T18:03:36.860Z,48.13
2023-05-17T18:06:06.545Z,48.17
2023-05-17T18:08:35.625Z,48.12
2023-05-17T18:11:04.898Z,47.95
2023-05-17T18:13:33.937Z,47.88
2023-05-17T18:16:02.824Z,47.89
2023-05-17T18:18:32.111Z,47.77
2023-05-17T18:21:01.107Z,47.68
2023-05-17T18:23:30.118Z,47.81
2023-05-17T18:25:59.030Z,47.77
2023-05-17T18:28:41.347Z,47.68
2023-05-17T18:31:11.325Z,47.55
2023-05-17T18:33:40.473Z,47.75
2023-05-17T18:36:09.824Z,47.69
2023-05-17T18:38:38.713Z,47.85
2023-05-17T18:41:07.544Z,47.73
2023-05-17T18:43:36.559Z,47.82
2023-05-17T18:46:05.591Z,47.94
2023-05-17T18:48:36.307Z,47.72
2023-05-17T18:51:06.361Z,47.58
2023-05-17T18:53:35.703Z,47.66
2023-05-17T18:56:05.761Z,47.64
2023-05-17T18:58:34.925Z,47.77
2023-05-17T19:01:03.991Z,47.68
2023-05-17T19:03:33.103Z,47.69
2023-05-17T19:06:01.993Z,47.89
2023-05-17T19:08:31.058Z,47.68
2023-05-17T19:11:03.075Z,47.93
2023-05-17T19:13:32.166Z,47.81
2023-05-17T19:16:02.498Z,47.55
2023-05-17T19:18:31.772Z,47.66
2023-05-17T19:21:00.861Z,47.80
2023-05-17T19:23:31.493Z,47.89
2023-05-17T19:26:00.738Z,47.83
2023-05-17T19:28:30.957Z,47.69
2023-05-17T19:31:00.215Z,47.78
2023-05-17T19:33:29.236Z,47.76
2023-05-17T19:35:58.673Z,47.71
2023-05-17T19:38:27.752Z,47.83
2023-05-17T19:40:56.636Z,47.86
2023-05-17T19:43:25.669Z,47.90
2023-05-17T19:45:54.854Z,47.64
2023-05-17T19:48:24.195Z,47.90
2023-05-17T19:50:54.958Z,48.05
2023-05-17T19:53:26.091Z,47.95
2023-05-17T19:55:55.969Z,47.96
2023-05-17T19:58:25.118Z,47.94
2023-05-17T20:00:54.061Z,48.06
2023-05-17T20:03:23.129Z,48.14
2023-05-17T20:05:52.680Z,48.22
2023-05-17T20:08:22.190Z,48.16
2023-05-17T20:10:51.005Z,48.12
2023-05-17T20:13:23.571Z,48.36
2023-05-17T20:15:52.594Z,48.39
2023-05-17T20:18:21.704Z,48.25
2023-05-17T20:20:53.566Z,48.38
2023-05-17T20:23:22.630Z,48.39
2023-05-17T20:25:51.660Z,48.51
2023-05-17T20:28:20.622Z,48.40
2023-05-17T20:30:49.768Z,48.51
2023-05-17T20:33:21.487Z,48.51
2023-05-17T20:35:50.819Z,48.60
2023-05-17T20:38:20.034Z,48.52
2023-05-17T20:40:51.072Z,48.49
2023-05-17T20:43:20.008Z,48.63
2023-05-17T20:45:49.194Z,48.70
2023-05-17T20:48:18.163Z,48.67
2023-05-17T20:50:48.499Z,48.87
2023-05-17T20:53:17.576Z,48.78
2023-05-17T20:55:46.692Z,48.92
2023-05-17T20:58:16.094Z,49.09
2023-05-17T21:00:45.150Z,49.02
2023-05-17T21:03:14.214Z,48.99
2023-05-17T21:05:43.413Z,49.15
2023-05-17T21:08:12.734Z,49.14
2023-05-17T21:10:45.638Z,49.47
2023-05-17T21:13:14.620Z,49.41
2023-05-17T21:15:43.803Z,49.70
2023-05-17T21:18:12.975Z,49.75
2023-05-17T21:20:41.928Z,49.99
2023-05-17T21:23:10.913Z,50.23
2023-05-17T21:25:40.102Z,50.46
2023-05-17T21:28:09.170Z,50.67
2023-05-17T21:30:38.121Z,50.80
2023-05-17T21:33:07.047Z,50.94
2023-05-17T21:35:35.926Z,51.20
2023-05-17T21:38:04.884Z,51.27
2023-05-17T21:40:34.065Z,51.48
2023-05-17T21:43:04.347Z,51.64
2023-05-17T21:45:33.427Z,51.72
2023-05-17T21:48:03.179Z,51.78
2023-05-17T21:50:32.442Z,51.96
2023-05-17T21:53:02.326Z,52.16
2023-05-17T21:55:36.378Z,52.21
2023-05-17T21:58:15.950Z,52.32
2023-05-17T22:00:44.875Z,52.42
2023-05-17T22:03:14.077Z,52.88
2023-05-17T22:05:43.116Z,53.06
2023-05-17T22:08:12.306Z,52.92
2023-05-17T22:10:41.573Z,53.05
2023-05-17T22:13:11.666Z,52.93
2023-05-17T22:15:40.907Z,53.12
2023-05-17T22:18:11.670Z,53.11
2023-05-17T22:20:40.934Z,53.14
2023-05-17T22:23:09.924Z,53.20
2023-05-17T22:25:38.903Z,53.39
2023-05-17T22:28:07.854Z,53.36
2023-05-17T22:30:36.799Z,53.57
2023-05-17T22:33:05.781Z,53.49
2023-05-17T22:35:35.676Z,53.63
2023-05-17T22:38:04.739Z,53.68
2023-05-17T22:40:33.719Z,53.67
2023-05-17T22:43:02.764Z,53.72
2023-05-17T22:45:32.364Z,53.76
2023-05-17T22:48:03.280Z,53.80
2023-05-17T22:50:32.347Z,53.96
2023-05-17T22:53:01.644Z,53.93
2023-05-17T22:55:30.891Z,53.93
2023-05-17T22:58:00.460Z,53.98
2023-05-17T23:00:29.394Z,54.16
2023-05-17T23:02:58.533Z,54.17
2023-05-17T23:05:27.576Z,54.24
2023-05-17T23:07:56.749Z,54.25
2023-05-17T23:10:25.882Z,54.26
2023-05-17T23:12:57.670Z,54.38
2023-05-17T23:15:27.843Z,54.47
2023-05-17T23:17:58.925Z,54.57
2023-05-17T23:20:28.149Z,54.45
2023-05-17T23:22:59.067Z,54.54
2023-05-17T23:25:28.692Z,54.85
2023-05-17T23:27:57.914Z,54.87
2023-05-17T23:30:27.403Z,54.99
2023-05-17T23:32:56.317Z,55.05
2023-05-17T23:35:25.835Z,55.00
2023-05-17T23:37:54.857Z,54.96
2023-05-17T23:40:23.876Z,54.94
2023-05-17T23:42:52.903Z,55.12
2023-05-17T23:45:22.139Z,55.24
2023-05-17T23:47:51.113Z,55.12
2023-05-17T23:50:20.129Z,55.06
2023-05-17T23:52:49.208Z,55.21
2023-05-17T23:55:18.567Z,55.28
2023-05-17T23:57:48.115Z,55.20
